Time;durP1;ratioP1;P1;durP2;ratioP2;P2;SDS_P1;SDS_P2;PMS_P1;PMS_P2;Temp;Humidity;BMP_temperature;BMP_pressure;BME280_temperature;BME280_humidity;BME280_pressure;Samples;Min_cycle;Max_cycle;Signal;HPM_P1;HPM_P2
2021/04/09 00:02:19;;;;;;;7.78;4.75;;;5.90;85.40;;;;;;5076741;28;20504;-47
2021/04/09 00:04:45;;;;;;;7.57;4.95;;;5.90;86.10;;;;;;5075961;28;20266;-49
2021/04/09 00:07:13;;;;;;;10.38;5.28;;;6.00;86.00;;;;;;5076639;28;20652;-48
2021/04/09 00:09:39;;;;;;;9.10;4.95;;;5.90;86.00;;;;;;5076953;28;20203;-49
2021/04/09 00:12:06;;;;;;;5.37;4.43;;;5.80;86.00;;;;;;5076488;28;20223;-48
2021/04/09 00:14:33;;;;;;;5.95;4.85;;;5.90;86.20;;;;;;5076498;28;20465;-48
2021/04/09 00:16:59;;;;;;;8.30;5.83;;;5.80;85.60;;;;;;5076602;28;20195;-48
2021/04/09 00:19:27;;;;;;;9.30;5.47;;;5.80;86.20;;;;;;5076765;28;20783;-47
2021/04/09 00:21:54;;;;;;;6.10;4.90;;;5.80;86.20;;;;;;5076697;28;20194;-49
2021/04/09 00:24:21;;;;;;;10.13;4.97;;;5.70;86.00;;;;;;5076399;28;20686;-48
2021/04/09 00:26:51;;;;;;;9.95;4.47;;;5.80;86.20;;;;;;5076900;28;20215;-47
2021/04/09 00:29:17;;;;;;;7.72;5.13;;;6.00;85.80;;;;;;5076778;28;20192;-48
2021/04/09 00:31:44;;;;;;;6.75;5.18;;;5.80;86.10;;;;;;5076816;28;20195;-47
2021/04/09 00:34:10;;;;;;;7.15;5.28;;;5.90;86.20;;;;;;5076473;28;20738;-46
2021/04/09 00:36:37;;;;;;;9.93;5.70;;;5.90;86.40;;;;;;5075018;28;20227;-48
2021/04/09 00:39:04;;;;;;;7.60;5.40;;;5.90;86.30;;;;;;5075969;28;20437;-47
2021/04/09 00:41:33;;;;;;;7.05;5.65;;;5.90;86.30;;;;;;5073813;28;20441;-48
2021/04/09 00:43:59;;;;;;;8.00;5.22;;;6.00;86.50;;;;;;5074606;28;20202;-48
2021/04/09 00:46:26;;;;;;;7.68;5.30;;;5.90;86.30;;;;;;5074312;28;20230;-48
2021/04/09 00:48:52;;;;;;;9.33;6.30;;;5.90;86.70;;;;;;5073993;28;20199;-48
2021/04/09 00:51:19;;;;;;;9.23;6.00;;;6.00;86.40;;;;;;5072440;28;20456;-47
2021/04/09 00:53:45;;;;;;;10.48;5.75;;;6.00;87.10;;;;;;5073417;28;20977;-48
2021/04/09 00:56:15;;;;;;;9.05;5.53;;;5.80;86.60;;;;;;5073329;28;20246;-47
2021/04/09 00:58:42;;;;;;;6.80;5.47;;;5.80;86.80;;;;;;5072209;28;20277;-46
2021/04/09 01:01:08;;;;;;;7.90;6.10;;;5.90;86.90;;;;;;5073481;28;20444;-46
2021/04/09 01:03:35;;;;;;;10.07;5.68;;;5.90;87.00;;;;;;5071650;28;20274;-47
2021/04/09 01:06:02;;;;;;;12.65;6.07;;;5.50;86.20;;;;;;5073343;28;20227;-47
2021/04/09 01:08:30;;;;;;;9.95;6.15;;;5.90;87.40;;;;;;5073315;28;20557;-47
2021/04/09 01:10:56;;;;;;;6.90;5.40;;;5.90;86.70;;;;;;5073116;28;20195;-46
2021/04/09 01:13:22;;;;;;;6.93;5.25;;;5.80;87.20;;;;;;5072740;28;20219;-47
2021/04/09 01:15:50;;;;;;;11.95;5.53;;;5.60;86.90;;;;;;5072465;28;20582;-47
2021/04/09 01:18:23;;;;;;;9.55;5.05;;;5.60;87.10;;;;;;5073046;28;20199;-47
2021/04/09 01:20:58;;;;;;;6.30;5.07;;;5.70;87.30;;;;;;5072903;28;20195;-48
2021/04/09 01:23:50;;;;;;;9.52;5.10;;;5.60;87.30;;;;;;5072535;28;20447;-47
2021/04/09 01:26:53;;;;;;;11.95;5.65;;;5.50;87.40;;;;;;5072711;28;20291;-47
2021/04/09 01:29:57;;;;;;;8.70;5.45;;;5.00;87.20;;;;;;5072528;28;20202;-47
2021/04/09 01:32:25;;;;;;;9.90;4.97;;;5.50;87.70;;;;;;5071807;28;20211;-47
2021/04/09 01:34:55;;;;;;;7.72;5.13;;;5.50;87.80;;;;;;5072444;28;20660;-48
2021/04/09 01:37:25;;;;;;;7.70;5.60;;;5.00;87.10;;;;;;5072490;28;20226;-48
2021/04/09 01:39:57;;;;;;;13.07;5.18;;;5.50;88.00;;;;;;5072454;28;20188;-46
2021/04/09 01:42:25;;;;;;;7.78;5.55;;;5.50;88.00;;;;;;5072337;28;20687;-49
2021/04/09 01:44:53;;;;;;;9.70;5.25;;;5.50;87.90;;;;;;5072114;28;20222;-47
2021/04/09 01:47:23;;;;;;;6.25;4.85;;;5.40;88.10;;;;;;5072361;28;20199;-47
2021/04/09 01:49:53;;;;;;;7.50;5.60;;;5.50;88.30;;;;;;5072099;28;20202;-47
2021/04/09 01:52:21;;;;;;;9.07;5.63;;;5.50;88.60;;;;;;5070432;28;20222;-47
2021/04/09 01:54:48;;;;;;;8.85;5.22;;;5.50;88.40;;;;;;5072089;28;20278;-47
2021/04/09 01:57:19;;;;;;;10.95;5.40;;;5.40;88.60;;;;;;5071970;28;20199;-47
2021/04/09 01:59:47;;;;;;;9.18;5.10;;;5.20;88.50;;;;;;5072091;28;20206;-47
2021/04/09 02:02:16;;;;;;;8.40;5.50;;;5.30;88.70;;;;;;5071554;28;20192;-48
2021/04/09 02:04:44;;;;;;;8.63;5.30;;;5.20;88.70;;;;;;5070805;28;20237;-48
2021/04/09 02:07:11;;;;;;;7.00;4.85;;;5.10;88.70;;;;;;5071766;28;20202;-47
2021/04/09 02:09:38;;;;;;;8.82;5.95;;;5.30;89.10;;;;;;5071815;28;20571;-48
2021/04/09 02:12:06;;;;;;;7.70;5.13;;;5.10;88.70;;;;;;5072178;28;20724;-47
2021/04/09 02:14:35;;;;;;;6.90;5.63;;;5.20;89.10;;;;;;5071555;28;20195;-47
2021/04/09 02:17:03;;;;;;;10.48;5.72;;;5.30;89.00;;;;;;5072297;28;20195;-47
2021/04/09 02:19:29;;;;;;;9.32;6.25;;;4.80;88.60;;;;;;5070461;28;20794;-47
2021/04/09 02:21:57;;;;;;;7.63;5.18;;;5.30;89.20;;;;;;5071943;28;20191;-49
2021/04/09 02:24:24;;;;;;;7.78;5.18;;;5.10;89.10;;;;;;5071522;28;20215;-46
2021/04/09 02:26:51;;;;;;;6.90;5.10;;;5.20;89.20;;;;;;5071586;28;20245;-47
2021/04/09 02:29:17;;;;;;;7.82;4.85;;;5.00;89.20;;;;;;5071153;28;20187;-46
2021/04/09 02:31:45;;;;;;;10.02;5.55;;;4.90;89.10;;;;;;5071874;28;20541;-47
2021/04/09 02:34:11;;;;;;;7.55;5.32;;;5.40;89.90;;;;;;5071356;28;20215;-46
2021/04/09 02:36:38;;;;;;;9.52;5.45;;;5.10;89.30;;;;;;5071669;28;20218;-46
2021/04/09 02:39:09;;;;;;;7.70;5.35;;;5.00;89.70;;;;;;5071991;28;20195;-47
2021/04/09 02:41:39;;;;;;;10.88;5.53;;;5.10;90.00;;;;;;5071775;28;20199;-46
2021/04/09 02:44:07;;;;;;;6.57;4.88;;;4.90;89.80;;;;;;5071294;28;20235;-48
2021/04/09 02:46:38;;;;;;;6.15;5.00;;;4.80;89.70;;;;;;5071498;28;20317;-48
2021/04/09 02:49:12;;;;;;;7.15;5.40;;;5.00;90.00;;;;;;5071563;28;20202;-48
2021/04/09 02:51:40;;;;;;;7.50;5.43;;;4.80;89.90;;;;;;5071699;28;20199;-47
2021/04/09 02:54:11;;;;;;;9.20;5.05;;;4.70;89.60;;;;;;5071213;28;20219;-49
2021/04/09 02:56:40;;;;;;;8.85;5.50;;;5.00;90.10;;;;;;5071683;28;20715;-47
2021/04/09 02:59:09;;;;;;;6.63;5.13;;;4.20;89.50;;;;;;5072739;28;20199;-48
2021/04/09 03:01:35;;;;;;;8.02;5.03;;;4.90;89.30;;;;;;5072825;28;20222;-48
2021/04/09 03:04:02;;;;;;;7.90;5.35;;;5.00;89.90;;;;;;5072869;28;20195;-47
2021/04/09 03:06:28;;;;;;;6.72;5.43;;;5.10;90.20;;;;;;5071594;28;20215;-46
2021/04/09 03:08:54;;;;;;;9.13;5.25;;;5.10;90.50;;;;;;5071975;28;20447;-47
2021/04/09 03:11:21;;;;;;;8.93;5.35;;;4.70;90.20;;;;;;5072978;28;20210;-47
2021/04/09 03:13:49;;;;;;;10.25;5.20;;;4.70;90.30;;;;;;5070036;28;20245;-48
2021/04/09 03:16:18;;;;;;;9.52;6.05;;;4.80;90.40;;;;;;5071750;28;20637;-49
2021/04/09 03:18:46;;;;;;;8.38;4.65;;;4.90;90.50;;;;;;5072068;28;20226;-49
2021/04/09 03:21:12;;;;;;;8.73;5.35;;;4.80;90.40;;;;;;5071854;28;20203;-49
2021/04/09 03:23:38;;;;;;;9.05;5.57;;;4.90;90.40;;;;;;5071500;28;20601;-48
2021/04/09 03:26:05;;;;;;;8.55;5.30;;;5.00;90.60;;;;;;5071180;28;20243;-47
2021/04/09 03:28:31;;;;;;;7.03;4.95;;;4.90;90.20;;;;;;5070850;28;20199;-49
2021/04/09 03:30:58;;;;;;;10.57;5.80;;;4.70;90.30;;;;;;5071111;28;20215;-48
2021/04/09 03:33:25;;;;;;;10.95;5.70;;;4.80;90.50;;;;;;5070607;28;20211;-47
2021/04/09 03:35:52;;;;;;;10.30;4.90;;;4.80;90.50;;;;;;5070987;28;20224;-47
2021/04/09 03:38:18;;;;;;;5.75;5.10;;;4.70;90.50;;;;;;5071076;28;20660;-48
2021/04/09 03:40:45;;;;;;;7.30;5.28;;;4.80;90.60;;;;;;5074033;28;20253;-46
2021/04/09 03:43:13;;;;;;;6.22;5.00;;;4.80;90.60;;;;;;5074207;28;20194;-48
2021/04/09 03:45:40;;;;;;;9.65;5.78;;;4.70;90.30;;;;;;5074278;28;20288;-48
2021/04/09 03:48:09;;;;;;;6.80;4.93;;;4.80;90.80;;;;;;5073299;28;20227;-48
2021/04/09 03:50:36;;;;;;;10.10;5.32;;;4.50;90.80;;;;;;5074450;28;20565;-48
2021/04/09 03:53:03;;;;;;;6.95;4.70;;;4.70;90.90;;;;;;5072723;28;20644;-48
2021/04/09 03:55:30;;;;;;;12.93;5.88;;;4.50;91.10;;;;;;5074425;28;20219;-47
2021/04/09 03:57:57;;;;;;;12.35;5.65;;;4.50;91.00;;;;;;5074494;28;20198;-48
2021/04/09 04:00:23;;;;;;;17.15;5.50;;;4.60;91.20;;;;;;5074525;28;20204;-47
2021/04/09 04:02:50;;;;;;;12.52;6.45;;;4.60;91.30;;;;;;5074199;28;20656;-47
2021/04/09 04:05:18;;;;;;;11.82;6.50;;;4.40;91.10;;;;;;5074701;28;20223;-48
2021/04/09 04:07:45;;;;;;;8.23;5.93;;;4.00;91.30;;;;;;5075638;28;20191;-48
2021/04/09 04:10:12;;;;;;;6.07;5.13;;;4.50;91.50;;;;;;5074341;28;20622;-48
2021/04/09 04:12:38;;;;;;;10.30;5.50;;;4.30;91.50;;;;;;5073874;28;20243;-48
2021/04/09 04:15:06;;;;;;;8.43;5.55;;;4.40;91.40;;;;;;5074159;28;20215;-47
2021/04/09 04:17:33;;;;;;;9.20;5.70;;;4.40;91.40;;;;;;5072544;28;20212;-47
2021/04/09 04:19:59;;;;;;;11.68;5.65;;;4.50;91.40;;;;;;5073848;28;20195;-48
2021/04/09 04:22:26;;;;;;;8.05;5.80;;;4.20;91.30;;;;;;5073550;28;20195;-47
2021/04/09 04:24:53;;;;;;;10.30;6.07;;;4.00;91.20;;;;;;5073804;28;20741;-48
2021/04/09 04:27:20;;;;;;;7.90;5.97;;;4.20;91.50;;;;;;5073703;28;20663;-47
2021/04/09 04:29:46;;;;;;;10.13;6.15;;;4.30;91.50;;;;;;5072570;28;20222;-49
2021/04/09 04:32:12;;;;;;;9.68;5.90;;;4.20;91.60;;;;;;5073894;28;20196;-48
2021/04/09 04:34:39;;;;;;;8.40;5.85;;;4.40;91.50;;;;;;5073158;28;20699;-49
2021/04/09 04:37:05;;;;;;;11.52;6.72;;;4.30;91.70;;;;;;5073861;28;20203;-47
2021/04/09 04:39:32;;;;;;;27.02;15.27;;;4.20;91.70;;;;;;5072437;28;20196;-49
2021/04/09 04:41:58;;;;;;;8.57;7.03;;;4.40;91.80;;;;;;5073955;28;20286;-50
2021/04/09 04:44:25;;;;;;;12.85;6.40;;;4.40;91.70;;;;;;5073095;28;20187;-48
2021/04/09 04:46:51;;;;;;;10.38;5.80;;;4.40;91.60;;;;;;5073795;28;20215;-47
2021/04/09 04:49:17;;;;;;;8.82;6.47;;;4.60;91.60;;;;;;5072004;28;20227;-45
2021/04/09 04:51:43;;;;;;;9.95;5.60;;;4.60;91.70;;;;;;5073244;28;20285;-46
2021/04/09 04:54:10;;;;;;;9.77;6.55;;;4.40;91.50;;;;;;5071750;28;20265;-47
2021/04/09 04:56:37;;;;;;;12.82;6.95;;;4.40;91.60;;;;;;5073325;28;20652;-47
2021/04/09 04:59:03;;;;;;;9.60;5.78;;;4.20;91.60;;;;;;5073462;28;20565;-48
2021/04/09 05:01:29;;;;;;;8.18;6.72;;;4.20;91.60;;;;;;5073254;28;20222;-47
2021/04/09 05:03:55;;;;;;;9.02;6.20;;;3.80;91.40;;;;;;5072901;28;20190;-48
2021/04/09 05:06:22;;;;;;;9.23;6.78;;;4.90;91.80;;;;;;5071775;28;20269;-47
2021/04/09 05:08:48;;;;;;;10.10;6.88;;;4.70;91.70;;;;;;5071562;28;20293;-48
2021/04/09 05:11:14;;;;;;;10.88;6.20;;;4.80;91.30;;;;;;5073177;28;20278;-47
2021/04/09 05:13:41;;;;;;;13.32;7.55;;;4.70;91.50;;;;;;5072712;28;20306;-47
2021/04/09 05:16:07;;;;;;;8.10;6.53;;;4.70;91.40;;;;;;5072745;28;20239;-48
2021/04/09 05:18:34;;;;;;;12.68;6.95;;;4.50;91.20;;;;;;5072933;28;20710;-46
2021/04/09 05:21:00;;;;;;;13.50;6.90;;;4.80;91.30;;;;;;5072742;28;20199;-47
2021/04/09 05:23:26;;;;;;;13.23;7.93;;;4.50;91.20;;;;;;5072364;28;20215;-47
2021/04/09 05:25:52;;;;;;;7.95;6.20;;;4.70;91.40;;;;;;5072619;28;20595;-47
2021/04/09 05:28:18;;;;;;;16.35;7.93;;;4.50;91.40;;;;;;5072461;28;20286;-46
2021/04/09 05:30:45;;;;;;;10.60;6.80;;;4.60;91.40;;;;;;5072500;28;20249;-46
2021/04/09 05:33:12;;;;;;;10.13;6.70;;;4.80;91.50;;;;;;5071919;28;20645;-45
2021/04/09 05:35:38;;;;;;;10.57;6.93;;;5.10;91.70;;;;;;5072622;28;20250;-47
2021/04/09 05:38:04;;;;;;;13.02;8.05;;;4.90;91.20;;;;;;5072710;28;20632;-47
2021/04/09 05:40:30;;;;;;;11.55;7.05;;;5.00;91.40;;;;;;5072639;28;20195;-47
2021/04/09 05:42:58;;;;;;;10.50;7.68;;;4.90;91.10;;;;;;5072485;28;20249;-47
2021/04/09 05:45:25;;;;;;;14.57;7.22;;;5.40;91.20;;;;;;5072427;28;20226;-47
2021/04/09 05:47:52;;;;;;;12.35;7.43;;;5.00;90.90;;;;;;5073316;28;20244;-47
2021/04/09 05:50:19;;;;;;;11.63;7.55;;;5.40;90.80;;;;;;5071203;28;20192;-46
2021/04/09 05:52:45;;;;;;;9.02;7.13;;;5.50;90.90;;;;;;5073372;28;20196;-47
2021/04/09 05:55:12;;;;;;;13.80;7.43;;;5.50;90.60;;;;;;5074504;28;20250;-47
2021/04/09 05:57:39;;;;;;;11.05;7.40;;;5.50;90.60;;;;;;5074767;28;20664;-48
2021/04/09 06:00:10;;;;;;;8.43;6.97;;;5.50;90.20;;;;;;5073345;28;20245;-48
2021/04/09 06:02:36;;;;;;;13.98;7.80;;;5.60;90.10;;;;;;5070990;28;20211;-47
2021/04/09 06:05:03;;;;;;;17.05;7.75;;;5.80;90.30;;;;;;5072040;28;20304;-47
2021/04/09 06:07:30;;;;;;;11.55;8.13;;;5.80;89.80;;;;;;5071920;28;20199;-46
2021/04/09 06:09:56;;;;;;;18.85;9.15;;;5.50;89.10;;;;;;5072149;28;20684;-47
2021/04/09 06:12:22;;;;;;;13.02;9.35;;;6.20;89.50;;;;;;5071764;28;20722;-48
2021/04/09 06:14:48;;;;;;;13.70;9.45;;;5.90;88.80;;;;;;5071796;28;20255;-49
2021/04/09 06:17:15;;;;;;;12.17;8.10;;;6.30;88.30;;;;;;5072057;28;20195;-47
2021/04/09 06:19:41;;;;;;;17.20;8.20;;;6.30;88.10;;;;;;5071910;28;20465;-47
2021/04/09 06:22:08;;;;;;;11.30;8.40;;;6.30;87.70;;;;;;5072040;28;20436;-49
2021/04/09 06:24:36;;;;;;;13.10;9.20;;;6.20;87.80;;;;;;5072208;28;20841;-49
2021/04/09 06:27:03;;;;;;;10.17;7.17;;;6.10;87.50;;;;;;5072571;28;20933;-48
2021/04/09 06:29:30;;;;;;;12.23;7.73;;;6.00;87.50;;;;;;5072666;28;20438;-47
2021/04/09 06:31:57;;;;;;;15.27;8.80;;;6.20;87.80;;;;;;5072639;28;20429;-46
2021/04/09 06:34:23;;;;;;;11.40;7.87;;;6.10;87.80;;;;;;5071393;28;20490;-48
2021/04/09 06:36:50;;;;;;;22.58;9.50;;;6.10;87.30;;;;;;5071838;28;20448;-47
2021/04/09 06:39:17;;;;;;;10.10;6.93;;;6.20;87.40;;;;;;5072564;28;20687;-48
2021/04/09 06:41:44;;;;;;;11.60;7.95;;;5.70;86.80;;;;;;5071061;28;20454;-47
2021/04/09 06:44:11;;;;;;;14.20;7.82;;;6.20;87.10;;;;;;5072541;28;20276;-47
2021/04/09 06:46:38;;;;;;;18.93;8.70;;;6.40;87.30;;;;;;5073216;28;20215;-47
2021/04/09 06:49:05;;;;;;;19.38;11.25;;;6.30;87.30;;;;;;5072944;28;20795;-46
2021/04/09 06:51:32;;;;;;;17.63;7.70;;;6.20;87.00;;;;;;5073083;28;20191;-47
2021/04/09 06:54:01;;;;;;;10.27;7.73;;;6.30;86.70;;;;;;5073214;28;20349;-48
2021/04/09 06:56:30;;;;;;;18.50;7.90;;;6.30;85.70;;;;;;5072924;28;20595;-47
2021/04/09 06:58:56;;;;;;;10.80;8.73;;;6.60;85.40;;;;;;5072231;28;20440;-47
2021/04/09 07:01:24;;;;;;;10.77;7.63;;;7.10;85.70;;;;;;5072555;28;20438;-48
2021/04/09 07:03:54;;;;;;;18.30;8.93;;;6.90;84.80;;;;;;5071127;28;20434;-47
2021/04/09 07:06:20;;;;;;;11.70;7.50;;;7.30;85.30;;;;;;5071713;28;20459;-48
2021/04/09 07:08:46;;;;;;;9.77;7.90;;;7.10;84.80;;;;;;5071580;28;20471;-47
2021/04/09 07:11:12;;;;;;;15.53;7.40;;;7.00;84.60;;;;;;5071638;28;20422;-48
2021/04/09 07:13:49;;;;;;;15.40;9.07;;;7.30;84.30;;;;;;5071287;28;20477;-48
2021/04/09 07:16:17;;;;;;;12.43;8.60;;;7.30;83.80;;;;;;5075219;28;20450;-48
2021/04/09 07:18:49;;;;;;;10.87;7.33;;;7.00;83.70;;;;;;5074231;28;20450;-48
2021/04/09 07:21:23;;;;;;;11.33;8.67;;;6.80;83.40;;;;;;5075241;28;20535;-48
2021/04/09 07:23:51;;;;;;;11.17;7.97;;;7.60;84.10;;;;;;5075103;28;20445;-48
2021/04/09 07:26:40;;;;;;;10.83;8.60;;;7.60;83.70;;;;;;5075313;28;20500;-48
2021/04/09 07:29:08;;;;;;;10.27;8.80;;;7.60;83.10;;;;;;5075394;28;20435;-48
2021/04/09 07:31:34;;;;;;;16.70;8.10;;;7.50;83.00;;;;;;5075177;28;20434;-47
2021/04/09 07:34:00;;;;;;;15.00;9.17;;;7.60;82.70;;;;;;5074530;28;20966;-48
2021/04/09 07:36:27;;;;;;;11.47;9.40;;;7.60;82.70;;;;;;5075060;28;20474;-47
2021/04/09 07:38:54;;;;;;;9.47;7.80;;;7.90;82.30;;;;;;5073316;28;20449;-48
2021/04/09 07:41:20;;;;;;;13.43;7.70;;;7.80;82.20;;;;;;5073277;28;20473;-50
2021/04/09 07:43:46;;;;;;;16.00;7.57;;;7.80;81.50;;;;;;5074780;28;20542;-47
2021/04/09 07:46:21;;;;;;;10.20;7.60;;;7.80;81.70;;;;;;5074754;28;20468;-48
2021/04/09 07:48:50;;;;;;;13.33;7.70;;;8.20;81.90;;;;;;5074821;28;20433;-47
2021/04/09 07:51:20;;;;;;;8.63;7.17;;;8.00;81.40;;;;;;5074622;28;20446;-47
2021/04/09 07:53:47;;;;;;;13.77;7.97;;;8.00;80.60;;;;;;5074176;28;20466;-49
2021/04/09 07:56:15;;;;;;;11.83;7.57;;;8.10;80.90;;;;;;5075105;28;20474;-48
2021/04/09 07:58:43;;;;;;;14.30;7.70;;;8.00;80.10;;;;;;5075836;28;20466;-48
2021/04/09 08:01:20;;;;;;;10.10;8.37;;;8.30;80.40;;;;;;5075262;28;20485;-47
2021/04/09 08:03:47;;;;;;;11.10;7.87;;;8.30;80.20;;;;;;5072626;28;20530;-47
2021/04/09 08:06:14;;;;;;;10.97;7.20;;;8.40;80.30;;;;;;5074511;28;20455;-48
2021/04/09 08:08:58;;;;;;;12.57;7.57;;;8.60;80.20;;;;;;5074357;28;20445;-47
2021/04/09 08:11:27;;;;;;;13.50;9.30;;;8.60;80.20;;;;;;5074514;28;20520;-47
2021/04/09 08:14:02;;;;;;;14.50;8.47;;;8.70;79.40;;;;;;5073619;28;20467;-47
2021/04/09 08:16:31;;;;;;;9.77;8.33;;;8.80;79.90;;;;;;5073026;28;20812;-48
2021/04/09 08:19:04;;;;;;;12.33;7.83;;;8.80;79.40;;;;;;5074061;28;20448;-49
2021/04/09 08:21:33;;;;;;;11.20;7.10;;;8.60;78.30;;;;;;5074636;28;20443;-47
2021/04/09 08:23:59;;;;;;;12.03;9.30;;;9.00;77.90;;;;;;5073685;28;20882;-47
2021/04/09 08:26:28;;;;;;;17.53;8.10;;;9.20;78.30;;;;;;5073062;28;20457;-48
2021/04/09 08:28:56;;;;;;;12.43;7.50;;;9.20;78.00;;;;;;5074083;28;20448;-48
2021/04/09 08:31:23;;;;;;;10.30;7.83;;;9.40;78.20;;;;;;5073985;28;20806;-47
2021/04/09 08:33:51;;;;;;;10.27;8.40;;;8.70;76.80;;;;;;5073767;28;20480;-49
2021/04/09 08:36:18;;;;;;;10.53;6.63;;;9.30;77.50;;;;;;5074225;28;20930;-47
2021/04/09 08:38:45;;;;;;;14.53;8.07;;;9.60;77.50;;;;;;5074839;28;20912;-47
2021/04/09 08:41:13;;;;;;;19.30;8.13;;;9.80;77.40;;;;;;5075271;28;20426;-47
2021/04/09 08:43:40;;;;;;;12.87;9.60;;;10.00;74.70;;;;;;5072425;28;20495;-47
2021/04/09 08:46:07;;;;;;;10.90;8.73;;;10.00;74.30;;;;;;5073784;28;20977;-47
2021/04/09 08:48:36;;;;;;;12.37;7.70;;;10.20;73.80;;;;;;5073889;28;21055;-47
2021/04/09 08:51:05;;;;;;;11.07;7.43;;;10.20;73.60;;;;;;5073424;28;20437;-47
2021/04/09 08:53:34;;;;;;;8.43;7.43;;;9.90;73.50;;;;;;5073264;28;20474;-47
2021/04/09 08:56:04;;;;;;;11.73;7.40;;;10.40;72.90;;;;;;5073700;28;20537;-48
2021/04/09 08:58:42;;;;;;;15.30;8.00;;;10.50;72.60;;;;;;5073880;28;20766;-47
2021/04/09 09:01:10;;;;;;;12.97;7.70;;;10.40;72.20;;;;;;5073511;28;20429;-47
2021/04/09 09:03:37;;;;;;;14.50;7.37;;;10.30;71.80;;;;;;5071380;28;21007;-47
2021/04/09 09:06:05;;;;;;;13.17;7.57;;;10.40;70.50;;;;;;5073173;28;20477;-47
2021/04/09 09:08:58;;;;;;;11.37;6.90;;;10.60;71.40;;;;;;5073400;28;20938;-49
2021/04/09 09:11:54;;;;;;;11.23;7.17;;;10.80;71.40;;;;;;5073077;28;20436;-47
2021/04/09 09:14:44;;;;;;;12.90;9.63;;;11.00;69.60;;;;;;5072651;28;20480;-47
2021/04/09 09:17:48;;;;;;;11.03;7.50;;;11.10;70.10;;;;;;5071461;28;20532;-48
2021/04/09 09:20:19;;;;;;;11.57;8.00;;;11.10;70.30;;;;;;5072762;28;20438;-48
2021/04/09 09:22:52;;;;;;;9.07;7.23;;;11.10;69.50;;;;;;5072294;28;20528;-47
2021/04/09 09:25:42;;;;;;;12.03;7.40;;;10.90;69.20;;;;;;5072917;28;20950;-48
2021/04/09 09:28:17;;;;;;;14.10;7.67;;;11.00;69.70;;;;;;5072766;28;20438;-49
2021/04/09 09:30:54;;;;;;;10.03;6.70;;;11.20;69.90;;;;;;5072702;28;20883;-47
2021/04/09 09:33:26;;;;;;;18.33;8.13;;;11.00;69.10;;;;;;5071974;28;20480;-49
2021/04/09 09:35:57;;;;;;;13.20;8.77;;;11.40;69.50;;;;;;5072120;28;20450;-48
2021/04/09 09:38:54;;;;;;;14.67;7.33;;;11.40;69.40;;;;;;5072298;28;20450;-48
2021/04/09 09:41:42;;;;;;;12.30;7.33;;;11.60;69.00;;;;;;5072482;28;20431;-47
2021/04/09 09:44:27;;;;;;;10.73;8.20;;;11.90;69.70;;;;;;5072103;28;20528;-46
2021/04/09 09:46:55;;;;;;;11.80;8.30;;;11.90;67.30;;;;;;5072429;28;20548;-48
2021/04/09 09:49:22;;;;;;;11.37;9.90;;;12.20;67.30;;;;;;5071166;28;20450;-47
2021/04/09 09:51:49;;;;;;;16.97;9.30;;;12.40;66.50;;;;;;5071980;28;20774;-47
2021/04/09 09:54:28;;;;;;;11.93;8.30;;;12.30;64.50;;;;;;5071691;28;20590;-48
2021/04/09 09:56:55;;;;;;;12.80;8.37;;;12.60;63.80;;;;;;5072223;28;20535;-48
2021/04/09 09:59:25;;;;;;;9.80;8.60;;;12.40;63.60;;;;;;5071992;28;20521;-49
2021/04/09 10:01:56;;;;;;;11.00;8.60;;;12.40;63.10;;;;;;5070711;28;20445;-48
2021/04/09 10:04:23;;;;;;;12.43;8.50;;;11.80;61.80;;;;;;5071644;28;20431;-48
2021/04/09 10:06:54;;;;;;;11.77;8.30;;;12.50;63.40;;;;;;5071836;28;20451;-48
2021/04/09 10:09:29;;;;;;;13.93;8.03;;;12.80;63.30;;;;;;5071843;28;20427;-49
2021/04/09 10:11:57;;;;;;;13.83;9.13;;;12.70;62.00;;;;;;5070367;28;20516;-48
2021/04/09 10:14:27;;;;;;;13.17;8.43;;;12.70;63.60;;;;;;5071596;28;20815;-48
2021/04/09 10:16:55;;;;;;;12.73;8.40;;;12.70;62.40;;;;;;5071556;28;20875;-48
2021/04/09 10:19:21;;;;;;;11.20;7.97;;;12.70;62.60;;;;;;5071377;28;20441;-46
2021/04/09 10:21:47;;;;;;;10.20;7.53;;;12.80;62.30;;;;;;5071391;28;20938;-48
2021/04/09 10:24:16;;;;;;;12.03;7.83;;;12.70;62.00;;;;;;5071406;28;20437;-48
2021/04/09 10:26:44;;;;;;;9.47;7.33;;;13.10;62.60;;;;;;5072138;28;20507;-47
2021/04/09 10:29:22;;;;;;;9.33;7.30;;;12.90;62.60;;;;;;5071736;28;20920;-49
2021/04/09 10:31:48;;;;;;;12.70;7.63;;;12.90;62.80;;;;;;5071943;28;20924;-48
2021/04/09 10:34:20;;;;;;;10.10;7.37;;;12.90;62.80;;;;;;5071269;28;20474;-47
2021/04/09 10:36:46;;;;;;;10.37;7.70;;;13.10;61.80;;;;;;5071414;28;20473;-48
2021/04/09 10:39:15;;;;;;;8.83;7.00;;;12.90;61.30;;;;;;5072236;28;20943;-48
2021/04/09 10:41:46;;;;;;;7.40;6.60;;;13.50;61.70;;;;;;5072600;28;20433;-48
2021/04/09 10:44:16;;;;;;;8.40;7.00;;;13.10;61.40;;;;;;5072566;28;20447;-48
2021/04/09 10:46:44;;;;;;;9.60;7.20;;;13.20;62.10;;;;;;5095807;22;20502;-45
2021/04/09 10:49:12;;;;;;;9.70;6.70;;;13.50;62.10;;;;;;5070009;28;20955;-45
2021/04/09 10:51:41;;;;;;;8.37;6.47;;;13.40;61.50;;;;;;5070715;28;20823;-45
2021/04/09 10:54:09;;;;;;;10.00;6.83;;;13.80;62.00;;;;;;5070737;28;20491;-44
2021/04/09 10:56:35;;;;;;;9.40;6.37;;;13.30;60.70;;;;;;5070700;28;20473;-46
2021/04/09 10:59:07;;;;;;;11.20;6.53;;;13.70;61.20;;;;;;5070841;28;20868;-44
2021/04/09 11:01:34;;;;;;;8.30;6.73;;;13.30;61.40;;;;;;5071095;28;20465;-46
2021/04/09 11:04:01;;;;;;;8.10;6.77;;;13.30;61.80;;;;;;5070274;28;20479;-47
2021/04/09 11:06:28;;;;;;;8.23;5.73;;;13.60;61.70;;;;;;5070497;28;20459;-45
2021/04/09 11:08:59;;;;;;;9.03;6.27;;;13.20;62.00;;;;;;5070848;28;20435;-47
2021/04/09 11:11:32;;;;;;;9.80;6.60;;;13.40;62.20;;;;;;5071277;28;20438;-44
2021/04/09 11:14:08;;;;;;;9.67;6.57;;;13.20;62.00;;;;;;5070185;28;20619;-46
2021/04/09 11:16:49;;;;;;;9.63;6.20;;;13.10;61.70;;;;;;5070636;28;20447;-45
2021/04/09 11:19:26;;;;;;;9.40;6.90;;;13.30;61.10;;;;;;5071061;28;20927;-46
2021/04/09 11:21:54;;;;;;;9.33;5.87;;;12.90;61.30;;;;;;5070450;28;20530;-46
2021/04/09 11:24:23;;;;;;;8.07;5.77;;;12.90;61.40;;;;;;5070244;28;20420;-45
2021/04/09 11:26:51;;;;;;;8.53;5.37;;;13.10;61.90;;;;;;5070525;28;20452;-45
2021/04/09 11:29:23;;;;;;;9.47;8.37;;;12.80;61.40;;;;;;5070384;28;20436;-45
2021/04/09 11:31:50;;;;;;;16.20;8.70;;;12.50;61.50;;;;;;5070959;28;20435;-46
2021/04/09 11:34:17;;;;;;;12.57;7.97;;;13.10;61.80;;;;;;5069940;28;21048;-46
2021/04/09 11:36:49;;;;;;;7.60;6.50;;;13.50;62.60;;;;;;5070058;28;20449;-47
2021/04/09 11:39:17;;;;;;;8.67;6.17;;;13.30;61.40;;;;;;5068709;28;20450;-45
2021/04/09 11:41:45;;;;;;;8.70;6.13;;;13.10;61.20;;;;;;5070190;28;20515;-45
2021/04/09 11:44:31;;;;;;;10.70;6.43;;;13.30;61.20;;;;;;5069863;28;20856;-45
2021/04/09 11:47:17;;;;;;;12.97;7.53;;;13.40;61.50;;;;;;5070278;28;20468;-44
2021/04/09 11:49:44;;;;;;;11.83;7.20;;;13.30;61.40;;;;;;5070293;28;20441;-46
2021/04/09 11:52:10;;;;;;;8.30;6.37;;;13.40;61.40;;;;;;5071071;28;20870;-45
2021/04/09 11:54:39;;;;;;;6.57;5.33;;;13.40;61.60;;;;;;5071140;28;20561;-47
2021/04/09 11:57:19;;;;;;;8.73;6.00;;;13.60;61.80;;;;;;5071975;28;20447;-46
2021/04/09 11:59:46;;;;;;;9.13;5.73;;;13.50;60.50;;;;;;5074113;28;20548;-46
2021/04/09 12:02:26;;;;;;;8.90;6.00;;;13.40;60.50;;;;;;5075118;28;20431;-46
2021/04/09 12:04:52;;;;;;;7.80;5.77;;;13.50;60.80;;;;;;5076274;28;20437;-46
2021/04/09 12:07:21;;;;;;;9.30;6.23;;;13.40;60.70;;;;;;5075615;28;20785;-45
2021/04/09 12:09:51;;;;;;;7.90;5.80;;;14.30;61.60;;;;;;5074374;28;20454;-46
2021/04/09 12:12:17;;;;;;;9.03;6.50;;;14.30;61.00;;;;;;5073638;28;20701;-45
2021/04/09 12:14:47;;;;;;;9.83;5.83;;;14.20;60.80;;;;;;5073096;28;20527;-46
2021/04/09 12:17:15;;;;;;;8.93;6.57;;;14.20;60.80;;;;;;5072577;28;20450;-45
2021/04/09 12:19:43;;;;;;;11.43;6.30;;;13.90;59.90;;;;;;5073302;28;20532;-47
2021/04/09 12:22:11;;;;;;;8.10;6.60;;;14.60;60.70;;;;;;5073538;28;20927;-45
2021/04/09 12:24:38;;;;;;;10.20;6.63;;;13.70;59.40;;;;;;5074044;28;20461;-46
2021/04/09 12:27:06;;;;;;;7.83;7.03;;;14.60;60.00;;;;;;5073442;28;20966;-46
2021/04/09 12:29:32;;;;;;;8.57;7.67;;;14.30;59.70;;;;;;5073414;28;20544;-46
2021/04/09 12:32:00;;;;;;;12.00;7.47;;;14.20;59.30;;;;;;5073430;28;20489;-45
2021/04/09 12:34:26;;;;;;;7.50;6.30;;;14.20;59.30;;;;;;5073097;28;20483;-46
2021/04/09 12:36:53;;;;;;;10.17;6.40;;;14.40;59.20;;;;;;5073615;28;20468;-45
2021/04/09 12:39:21;;;;;;;6.70;5.80;;;14.50;58.90;;;;;;5073491;28;20442;-45
2021/04/09 12:41:47;;;;;;;8.50;6.90;;;14.20;58.00;;;;;;5073298;28;20893;-44
2021/04/09 12:44:15;;;;;;;9.53;7.10;;;14.40;58.20;;;;;;5073028;28;21015;-45
2021/04/09 12:46:44;;;;;;;8.93;6.33;;;14.20;58.30;;;;;;5073215;28;20481;-46
2021/04/09 12:49:11;;;;;;;10.10;6.33;;;14.70;58.10;;;;;;5072936;28;20443;-46
2021/04/09 12:51:37;;;;;;;7.80;7.00;;;14.80;58.00;;;;;;5072759;28;20434;-46
2021/04/09 12:54:05;;;;;;;10.30;7.50;;;14.80;58.10;;;;;;5072924;28;20566;-46
2021/04/09 12:56:31;;;;;;;10.27;6.10;;;14.30;57.70;;;;;;5072275;28;20450;-46
2021/04/09 12:58:57;;;;;;;7.97;6.40;;;14.30;57.70;;;;;;5072442;28;20437;-46